Time;durP1;ratioP1;P1;durP2;ratioP2;P2;SDS_P1;SDS_P2;PMS_P1;PMS_P2;Temp;Humidity;BMP_temperature;BMP_pressure;BME280_temperature;BME280_humidity;BME280_pressure;Samples;Min_cycle;Max_cycle;Signal;HPM_P1;HPM_P2
2022/08/02 00:01:18;;;;;;;;;;;14.40;99.90;;;;;;5019766;28;20279;-72
2022/08/02 00:03:44;;;;;;;;;;;14.40;99.90;;;;;;5033736;28;20251;-72
2022/08/02 00:06:09;;;;;;;;;;;14.40;99.90;;;;;;5033042;28;19921;-72
2022/08/02 00:08:35;;;;;;;;;;;14.30;99.90;;;;;;5033781;28;19917;-72
2022/08/02 00:11:01;;;;;;;;;;;14.40;99.90;;;;;;5033791;28;20016;-72
2022/08/02 00:13:26;;;;;;;;;;;14.40;99.90;;;;;;5033294;28;20416;-73
2022/08/02 00:15:52;;;;;;;;;;;14.40;99.90;;;;;;5032878;28;20559;-71
2022/08/02 00:18:17;;;;;;;;;;;14.30;99.90;;;;;;5032594;28;20016;-72
2022/08/02 00:20:47;;;;;;;;;;;14.40;99.90;;;;;;5032757;28;20207;-72
2022/08/02 00:23:12;;;;;;;;;;;14.40;99.90;;;;;;5033559;28;19943;-72
2022/08/02 00:25:38;;;;;;;;;;;14.40;99.90;;;;;;5033498;28;19913;-72
2022/08/02 00:28:03;;;;;;;;;;;14.40;99.90;;;;;;5032480;28;19952;-72
2022/08/02 00:30:29;;;;;;;;;;;14.30;99.90;;;;;;5032368;28;19909;-76
2022/08/02 00:32:55;;;;;;;;;;;14.20;99.90;;;;;;5033522;28;20032;-72
2022/08/02 00:35:20;;;;;;;;;;;14.20;99.90;;;;;;5033526;28;20008;-72
2022/08/02 00:37:46;;;;;;;;;;;14.30;99.90;;;;;;5032041;28;19952;-71
2022/08/02 00:40:11;;;;;;;;;;;14.30;99.90;;;;;;5031334;28;19968;-72
2022/08/02 00:42:38;;;;;;;;;;;14.30;99.90;;;;;;5032873;28;20231;-72
2022/08/02 00:45:04;;;;;;;;;;;14.20;99.90;;;;;;5031310;28;19917;-72
2022/08/02 00:47:29;;;;;;;;;;;14.10;99.90;;;;;;5033286;28;19952;-72
2022/08/02 00:49:55;;;;;;;;;;;14.00;99.90;;;;;;5031075;28;19952;-72
2022/08/02 00:52:21;;;;;;;;;;;14.00;99.90;;;;;;5024649;28;20244;-72
2022/08/02 00:54:47;;;;;;;;;;;13.90;99.90;;;;;;5034097;28;20207;-72
2022/08/02 00:57:12;;;;;;;;;;;13.90;99.90;;;;;;5033128;28;19924;-75
2022/08/02 00:59:38;;;;;;;;;;;13.90;99.90;;;;;;5035539;28;19921;-72
2022/08/02 01:02:03;;;;;;;;;;;13.90;99.90;;;;;;5037741;28;19913;-71
2022/08/02 01:04:29;;;;;;;;;;;14.00;99.90;;;;;;5034695;28;19913;-72
2022/08/02 01:06:54;;;;;;;;;;;14.10;99.90;;;;;;5036956;28;20332;-71
2022/08/02 01:09:20;;;;;;;;;;;14.20;99.90;;;;;;5036849;28;19917;-71
2022/08/02 01:11:46;;;;;;;;;;;14.30;99.90;;;;;;5036359;28;20313;-71
2022/08/02 01:14:12;;;;;;;;;;;14.30;99.90;;;;;;5035599;28;19917;-71
2022/08/02 01:16:42;;;;;;;;;;;14.30;99.90;;;;;;5036317;28;20339;-71
2022/08/02 01:19:24;;;;;;;;;;;14.40;99.90;;;;;;5034721;28;20330;-71
2022/08/02 01:22:08;;;;;;;;;;;14.30;99.90;;;;;;5033647;28;19913;-72
2022/08/02 01:24:45;;;;;;;;;;;14.40;99.90;;;;;;5036231;28;19913;-71
2022/08/02 01:27:14;;;;;;;;;;;14.40;99.90;;;;;;5035749;28;19920;-72
2022/08/02 01:29:44;;;;;;;;;;;14.40;99.90;;;;;;5035134;28;19921;-71
2022/08/02 01:32:12;;;;;;;;;;;14.40;99.90;;;;;;5035848;28;19971;-72
2022/08/02 01:34:50;;;;;;;;;;;14.50;99.90;;;;;;5036308;28;19918;-72
2022/08/02 01:37:25;;;;;;;;;;;14.50;99.90;;;;;;5034955;28;19917;-73
2022/08/02 01:39:53;;;;;;;;;;;14.50;99.90;;;;;;5034913;28;19917;-71
2022/08/02 01:42:20;;;;;;;;;;;14.50;99.90;;;;;;5034461;28;20275;-72
2022/08/02 01:44:48;;;;;;;;;;;14.50;99.90;;;;;;5045716;28;19913;-72
2022/08/02 01:47:18;;;;;;;;;;;14.50;99.90;;;;;;5034394;28;19913;-71
2022/08/02 01:49:46;;;;;;;;;;;14.50;99.90;;;;;;5034470;28;19964;-72
2022/08/02 01:52:21;;;;;;;;;;;14.40;99.90;;;;;;5025677;28;19920;-72
2022/08/02 01:54:52;;;;;;;;;;;14.40;99.90;;;;;;5035476;28;19917;-72
2022/08/02 01:57:20;;;;;;;;;;;14.30;99.90;;;;;;5034630;28;19924;-72
2022/08/02 01:59:46;;;;;;;;;;;14.20;99.90;;;;;;5035866;28;19917;-72
2022/08/02 02:02:13;;;;;;;;;;;14.20;99.90;;;;;;5034117;28;19921;-73
2022/08/02 02:04:39;;;;;;;;;;;14.20;99.90;;;;;;5036714;28;19909;-72
2022/08/02 02:07:06;;;;;;;;;;;14.10;99.90;;;;;;5032876;28;19951;-72
2022/08/02 02:09:35;;;;;;;;;;;14.00;99.90;;;;;;5035772;28;19913;-76
2022/08/02 02:12:01;;;;;;;;;;;13.90;99.90;;;;;;5033288;28;19917;-73
2022/08/02 02:14:28;;;;;;;;;;;13.90;99.90;;;;;;5033147;28;20554;-72
2022/08/02 02:16:54;;;;;;;;;;;13.90;99.90;;;;;;5034890;28;19928;-72
2022/08/02 02:19:21;;;;;;;;;;;13.80;99.90;;;;;;5035277;28;19921;-73
2022/08/02 02:21:46;;;;;;;;;;;13.80;99.90;;;;;;5033471;28;19923;-72
2022/08/02 02:24:12;;;;;;;;;;;13.70;99.90;;;;;;5034741;28;20000;-72
2022/08/02 02:26:39;;;;;;;;;;;13.80;99.90;;;;;;5035353;28;20330;-71
2022/08/02 02:29:07;;;;;;;;;;;13.80;99.90;;;;;;5033437;28;19913;-72
2022/08/02 02:31:37;;;;;;;;;;;13.70;99.90;;;;;;5034991;28;19999;-71
2022/08/02 02:34:16;;;;;;;;;;;13.70;99.90;;;;;;5034692;28;19917;-72
2022/08/02 02:36:46;;;;;;;;;;;13.70;99.90;;;;;;5026449;28;20360;-72
2022/08/02 02:39:13;;;;;;;;;;;13.70;99.90;;;;;;5030807;28;20274;-72
2022/08/02 02:41:39;;;;;;;;;;;13.70;99.90;;;;;;5034609;28;20133;-72
2022/08/02 02:44:08;;;;;;;;;;;13.70;99.90;;;;;;5033212;28;19924;-73
2022/08/02 02:46:34;;;;;;;;;;;13.70;99.90;;;;;;5032970;28;19913;-72
2022/08/02 02:49:00;;;;;;;;;;;13.60;99.90;;;;;;5035106;28;19919;-72
2022/08/02 02:51:26;;;;;;;;;;;13.60;99.90;;;;;;5034568;28;19960;-73
2022/08/02 02:53:52;;;;;;;;;;;13.70;99.90;;;;;;5035006;28;19953;-73
2022/08/02 02:56:18;;;;;;;;;;;13.70;99.90;;;;;;5029565;28;19925;-72
2022/08/02 02:58:44;;;;;;;;;;;13.70;99.90;;;;;;5034934;28;20355;-75
2022/08/02 03:01:28;;;;;;;;;;;13.70;99.90;;;;;;5033778;28;19917;-72
2022/08/02 03:03:54;;;;;;;;;;;13.70;99.90;;;;;;5022981;28;19924;-73
2022/08/02 03:06:19;;;;;;;;;;;13.70;99.90;;;;;;5032199;28;19935;-72
2022/08/02 03:08:45;;;;;;;;;;;13.80;99.90;;;;;;5033275;28;19924;-72
2022/08/02 03:11:11;;;;;;;;;;;13.80;99.90;;;;;;5046629;28;19948;-72
2022/08/02 03:13:37;;;;;;;;;;;13.90;99.90;;;;;;5026027;28;19943;-73
2022/08/02 03:16:03;;;;;;;;;;;13.90;99.90;;;;;;5033844;28;19913;-73
2022/08/02 03:18:29;;;;;;;;;;;14.00;99.90;;;;;;5030720;28;19983;-73
2022/08/02 03:20:59;;;;;;;;;;;14.00;99.90;;;;;;5029389;28;19920;-71
2022/08/02 03:23:24;;;;;;;;;;;14.10;99.90;;;;;;5027610;28;19917;-72
2022/08/02 03:25:50;;;;;;;;;;;14.00;99.90;;;;;;5034699;28;19917;-72
2022/08/02 03:28:15;;;;;;;;;;;14.00;99.90;;;;;;5034851;28;19920;-73
2022/08/02 03:30:41;;;;;;;;;;;14.00;99.90;;;;;;5021264;28;20300;-75
2022/08/02 03:33:07;;;;;;;;;;;14.00;99.90;;;;;;5030822;28;20563;-72
2022/08/02 03:35:32;;;;;;;;;;;14.00;99.90;;;;;;5029432;28;20199;-72
2022/08/02 03:37:58;;;;;;;;;;;14.00;99.90;;;;;;5034330;28;20012;-73
2022/08/02 03:40:24;;;;;;;;;;;13.90;99.90;;;;;;5033699;28;19913;-72
2022/08/02 03:42:50;;;;;;;;;;;13.90;99.90;;;;;;5034579;28;20248;-72
2022/08/02 03:45:16;;;;;;;;;;;14.00;99.90;;;;;;5034318;28;20161;-72
2022/08/02 03:47:42;;;;;;;;;;;14.00;99.90;;;;;;5029783;28;19959;-71
2022/08/02 03:50:13;;;;;;;;;;;14.00;99.90;;;;;;5032661;28;19921;-72
2022/08/02 03:52:40;;;;;;;;;;;14.00;99.90;;;;;;5032326;28;19913;-73
2022/08/02 03:55:06;;;;;;;;;;;14.00;99.90;;;;;;5032359;28;19917;-74
2022/08/02 03:57:32;;;;;;;;;;;14.00;99.90;;;;;;5026342;28;19928;-73
2022/08/02 03:59:58;;;;;;;;;;;14.00;99.90;;;;;;5033716;28;19913;-73
2022/08/02 04:02:23;;;;;;;;;;;14.00;99.90;;;;;;5032693;28;19909;-73
2022/08/02 04:04:49;;;;;;;;;;;14.00;99.90;;;;;;5034288;28;20215;-77
2022/08/02 04:07:14;;;;;;;;;;;14.10;99.90;;;;;;5034017;28;19964;-73
2022/08/02 04:09:40;;;;;;;;;;;14.10;99.90;;;;;;5033316;28;19971;-72
2022/08/02 04:12:05;;;;;;;;;;;14.10;99.90;;;;;;5032462;28;19917;-72
2022/08/02 04:14:31;;;;;;;;;;;14.10;99.90;;;;;;5032513;28;19917;-73
2022/08/02 04:17:01;;;;;;;;;;;14.10;99.90;;;;;;5033707;28;20474;-72
2022/08/02 04:19:47;;;;;;;;;;;14.20;99.90;;;;;;5033902;28;19917;-73
2022/08/02 04:22:18;;;;;;;;;;;14.20;99.90;;;;;;5030889;28;20304;-73
2022/08/02 04:24:46;;;;;;;;;;;14.30;99.90;;;;;;5034019;28;19917;-73
2022/08/02 04:27:12;;;;;;;;;;;14.30;99.90;;;;;;5033532;28;20251;-75
2022/08/02 04:29:38;;;;;;;;;;;14.30;99.90;;;;;;5033822;28;19919;-73
2022/08/02 04:32:04;;;;;;;;;;;14.30;99.90;;;;;;5031044;28;20291;-72
2022/08/02 04:34:30;;;;;;;;;;;14.30;99.90;;;;;;5038319;28;19956;-72
2022/08/02 04:36:56;;;;;;;;;;;14.40;99.90;;;;;;5037064;28;19972;-72
2022/08/02 04:39:21;;;;;;;;;;;14.40;99.90;;;;;;5037009;28;19910;-73
2022/08/02 04:41:47;;;;;;;;;;;14.40;99.90;;;;;;5036551;28;20334;-71
2022/08/02 04:44:12;;;;;;;;;;;14.40;99.90;;;;;;5037357;28;19917;-72
2022/08/02 04:46:39;;;;;;;;;;;14.40;99.90;;;;;;5035180;28;19913;-73
2022/08/02 04:49:05;;;;;;;;;;;14.40;99.90;;;;;;5042431;28;20204;-73
2022/08/02 04:51:33;;;;;;;;;;;14.40;99.90;;;;;;5033965;28;19959;-73
2022/08/02 04:53:59;;;;;;;;;;;14.50;99.90;;;;;;5043143;28;19917;-73
2022/08/02 04:56:24;;;;;;;;;;;14.50;99.90;;;;;;5046858;28;20434;-73
2022/08/02 04:58:50;;;;;;;;;;;14.60;99.90;;;;;;5041117;28;19916;-73
2022/08/02 05:01:15;;;;;;;;;;;14.60;99.90;;;;;;5045272;28;20280;-73
2022/08/02 05:03:41;;;;;;;;;;;14.70;99.90;;;;;;5043496;28;19920;-73
2022/08/02 05:06:07;;;;;;;;;;;14.70;99.90;;;;;;5040768;28;20015;-71
2022/08/02 05:08:32;;;;;;;;;;;14.70;99.90;;;;;;5057207;28;20232;-72
2022/08/02 05:10:58;;;;;;;;;;;14.80;99.90;;;;;;5046340;28;19909;-73
2022/08/02 05:13:24;;;;;;;;;;;14.90;99.90;;;;;;5036339;28;19920;-73
2022/08/02 05:15:50;;;;;;;;;;;15.00;99.90;;;;;;5038093;28;19972;-73
2022/08/02 05:18:15;;;;;;;;;;;15.00;99.90;;;;;;5033969;28;19925;-72
2022/08/02 05:20:41;;;;;;;;;;;15.10;99.90;;;;;;5036250;28;19914;-74
2022/08/02 05:23:07;;;;;;;;;;;15.20;99.90;;;;;;5034677;28;19917;-73
2022/08/02 05:25:32;;;;;;;;;;;15.30;99.90;;;;;;5038473;28;19935;-74
2022/08/02 05:27:58;;;;;;;;;;;15.40;99.90;;;;;;5039262;28;19913;-76
2022/08/02 05:30:23;;;;;;;;;;;15.50;99.90;;;;;;5039474;28;20338;-74
2022/08/02 05:32:51;;;;;;;;;;;15.60;99.90;;;;;;5038997;28;19913;-73
2022/08/02 05:35:20;;;;;;;;;;;15.80;99.90;;;;;;5039904;28;19959;-74
2022/08/02 05:37:47;;;;;;;;;;;15.80;99.90;;;;;;5035526;28;19979;-74
2022/08/02 05:40:12;;;;;;;;;;;15.90;99.90;;;;;;5039100;28;19917;-74
2022/08/02 05:42:38;;;;;;;;;;;16.00;99.90;;;;;;5039554;28;19913;-74
2022/08/02 05:45:04;;;;;;;;;;;16.10;99.90;;;;;;5044690;28;19967;-72
2022/08/02 05:47:29;;;;;;;;;;;16.20;99.90;;;;;;5038289;28;19956;-75
2022/08/02 05:49:55;;;;;;;;;;;16.30;99.90;;;;;;5036275;28;20232;-74
2022/08/02 05:52:23;;;;;;;;;;;16.30;99.90;;;;;;5034118;28;19913;-73
2022/08/02 05:54:53;;;;;;;;;;;16.30;99.90;;;;;;5031371;28;20366;-74
2022/08/02 05:57:28;;;;;;;;;;;16.40;99.90;;;;;;5031145;28;19944;-74
2022/08/02 06:00:10;;;;;;;;;;;16.40;99.90;;;;;;5034225;28;19917;-74
2022/08/02 06:02:38;;;;;;;;;;;16.50;99.90;;;;;;5030762;28;19917;-73
2022/08/02 06:05:09;;;;;;;;;;;16.50;99.90;;;;;;5034054;28;19992;-75
2022/08/02 06:07:35;;;;;;;;;;;16.60;99.90;;;;;;5040429;28;20306;-73
2022/08/02 06:10:05;;;;;;;;;;;16.60;99.90;;;;;;5044038;28;19917;-73
2022/08/02 06:12:31;;;;;;;;;;;16.70;99.90;;;;;;5039966;28;19917;-74
2022/08/02 06:14:58;;;;;;;;;;;16.70;99.90;;;;;;5037708;28;20030;-76
2022/08/02 06:17:23;;;;;;;;;;;16.70;99.90;;;;;;5038147;28;19921;-74
2022/08/02 06:19:49;;;;;;;;;;;16.70;99.90;;;;;;5036121;28;19931;-74
2022/08/02 06:22:15;;;;;;;;;;;16.80;99.90;;;;;;5040275;28;19918;-75
2022/08/02 06:24:42;;;;;;;;;;;16.80;99.90;;;;;;5033269;28;19921;-73
2022/08/02 06:27:07;;;;;;;;;;;16.80;99.90;;;;;;5038750;28;19921;-74
2022/08/02 06:29:33;;;;;;;;;;;16.90;99.90;;;;;;5043894;28;19917;-74
2022/08/02 06:31:59;;;;;;;;;;;17.00;99.90;;;;;;5042688;28;19935;-73
2022/08/02 06:34:25;;;;;;;;;;;17.10;99.90;;;;;;5033162;28;20011;-73
2022/08/02 06:37:11;;;;;;;;;;;17.30;99.90;;;;;;5036124;28;20004;-73
2022/08/02 06:39:45;;;;;;;;;;;17.40;99.90;;;;;;5034179;28;19917;-73
2022/08/02 06:42:12;;;;;;;;;;;17.40;99.90;;;;;;5039973;28;19913;-75
2022/08/02 06:44:37;;;;;;;;;;;17.50;99.90;;;;;;5038717;28;19916;-72
2022/08/02 06:47:03;;;;;;;;;;;17.60;99.90;;;;;;5042319;28;20278;-74
2022/08/02 06:49:29;;;;;;;;;;;17.70;99.90;;;;;;5051960;28;19921;-74
2022/08/02 06:51:54;;;;;;;;;;;17.80;99.90;;;;;;5034184;28;19913;-74
2022/08/02 06:54:20;;;;;;;;;;;18.00;99.90;;;;;;5032007;28;19940;-73
2022/08/02 06:56:46;;;;;;;;;;;18.10;99.90;;;;;;5036031;28;20354;-75
2022/08/02 06:59:12;;;;;;;;;;;18.10;99.90;;;;;;5033191;28;19921;-73
2022/08/02 07:01:37;;;;;;;;;;;18.30;99.90;;;;;;5038068;28;20200;-75
2022/08/02 07:04:03;;;;;;;;;;;18.40;99.90;;;;;;5043301;28;19979;-75
2022/08/02 07:06:29;;;;;;;;;;;18.40;99.90;;;;;;5049008;28;19922;-73
2022/08/02 07:08:55;;;;;;;;;;;18.50;99.90;;;;;;5040411;28;19963;-74
2022/08/02 07:11:21;;;;;;;;;;;18.60;99.90;;;;;;5037019;28;19909;-75
2022/08/02 07:13:46;;;;;;;;;;;18.70;99.90;;;;;;5035128;28;19921;-73
2022/08/02 07:16:12;;;;;;;;;;;18.70;99.90;;;;;;5036289;28;19916;-73
2022/08/02 07:18:37;;;;;;;;;;;18.90;99.90;;;;;;5039450;28;19932;-74
2022/08/02 07:21:04;;;;;;;;;;;19.10;99.90;;;;;;5040117;28;19999;-75
2022/08/02 07:23:30;;;;;;;;;;;19.20;99.90;;;;;;5037767;28;20092;-74
2022/08/02 07:25:56;;;;;;;;;;;19.30;99.90;;;;;;5034025;28;20026;-73
2022/08/02 07:28:22;;;;;;;;;;;19.30;99.90;;;;;;5035354;28;20539;-74
2022/08/02 07:30:47;;;;;;;;;;;19.40;99.90;;;;;;5038708;28;19913;-73
2022/08/02 07:33:13;;;;;;;;;;;19.50;99.90;;;;;;5046255;28;19994;-75
2022/08/02 07:35:39;;;;;;;;;;;19.80;99.90;;;;;;5042566;28;19913;-74
2022/08/02 07:38:05;;;;;;;;;;;20.20;99.90;;;;;;5045541;28;20227;-74
2022/08/02 07:40:31;;;;;;;;;;;20.50;99.90;;;;;;5037801;28;19921;-76
2022/08/02 07:42:56;;;;;;;;;;;20.80;99.90;;;;;;5042967;28;19913;-77
2022/08/02 07:45:22;;;;;;;;;;;21.00;99.90;;;;;;5032901;28;20267;-74
2022/08/02 07:47:48;;;;;;;;;;;21.20;99.90;;;;;;5036268;28;20339;-74
2022/08/02 07:50:15;;;;;;;;;;;21.50;99.90;;;;;;5048877;28;19913;-73
2022/08/02 07:52:41;;;;;;;;;;;21.70;99.90;;;;;;5036943;28;20324;-74
2022/08/02 07:55:07;;;;;;;;;;;21.90;99.90;;;;;;5031424;28;19917;-75
2022/08/02 07:57:33;;;;;;;;;;;22.10;99.90;;;;;;5034748;28;20003;-74
2022/08/02 07:59:58;;;;;;;;;;;22.40;99.90;;;;;;5036856;28;19944;-74
2022/08/02 08:02:24;;;;;;;;;;;22.80;99.90;;;;;;5032127;28;20263;-75
2022/08/02 08:04:50;;;;;;;;;;;23.00;99.90;;;;;;5030125;28;20341;-74
2022/08/02 08:07:16;;;;;;;;;;;23.20;99.90;;;;;;5029823;28;19913;-73
2022/08/02 08:09:42;;;;;;;;;;;23.30;99.90;;;;;;5032029;28;20331;-73
2022/08/02 08:12:08;;;;;;;;;;;23.30;99.90;;;;;;5033901;28;20043;-73
2022/08/02 08:14:34;;;;;;;;;;;23.30;99.90;;;;;;5033262;28;19952;-74
2022/08/02 08:17:00;;;;;;;;;;;23.30;99.90;;;;;;5027546;28;19964;-73
2022/08/02 08:19:25;;;;;;;;;;;23.60;99.90;;;;;;5032914;28;20381;-74
2022/08/02 08:21:51;;;;;;;;;;;23.70;99.90;;;;;;5032864;28;20284;-74
2022/08/02 08:24:16;;;;;;;;;;;23.90;99.90;;;;;;5033369;28;20012;-75
2022/08/02 08:26:42;;;;;;;;;;;24.10;99.90;;;;;;5032869;28;19918;-75
2022/08/02 08:29:08;;;;;;;;;;;24.30;99.90;;;;;;5032395;28;19917;-75
2022/08/02 08:31:33;;;;;;;;;;;24.50;99.90;;;;;;5033729;28;20003;-74
2022/08/02 08:33:59;;;;;;;;;;;24.80;99.90;;;;;;5035495;28;20217;-74
2022/08/02 08:36:25;;;;;;;;;;;25.00;99.90;;;;;;5033470;28;19971;-75
2022/08/02 08:38:50;;;;;;;;;;;25.00;99.90;;;;;;5032731;28;19924;-75
2022/08/02 08:41:17;;;;;;;;;;;25.20;99.90;;;;;;5034029;28;19960;-73
2022/08/02 08:43:42;;;;;;;;;;;25.30;99.90;;;;;;5039038;28;20377;-75
2022/08/02 08:46:09;;;;;;;;;;;25.50;99.90;;;;;;5045681;28;20000;-75
2022/08/02 08:48:37;;;;;;;;;;;25.60;99.90;;;;;;5043214;28;19960;-75
2022/08/02 08:51:09;;;;;;;;;;;25.80;99.90;;;;;;5043916;28;19927;-75
2022/08/02 08:53:38;;;;;;;;;;;25.90;99.90;;;;;;5036776;28;19917;-75
2022/08/02 08:56:05;;;;;;;;;;;26.10;99.90;;;;;;5044309;28;19913;-72
2022/08/02 08:58:30;;;;;;;;;;;26.20;99.90;;;;;;5048764;28;19913;-75
2022/08/02 09:00:56;;;;;;;;;;;26.40;99.90;;;;;;5029081;28;19921;-77
2022/08/02 09:03:21;;;;;;;;;;;26.50;99.90;;;;;;5031039;28;20071;-76
2022/08/02 09:05:47;;;;;;;;;;;26.50;99.90;;;;;;5030071;28;19917;-76
2022/08/02 09:08:13;;;;;;;;;;;26.50;99.90;;;;;;5033796;28;20034;-75
2022/08/02 09:10:39;;;;;;;;;;;26.60;99.90;;;;;;5047340;28;19955;-76
2022/08/02 09:13:14;;;;;;;;;;;26.80;99.90;;;;;;5030195;28;20242;-75
2022/08/02 09:15:40;;;;;;;;;;;27.00;99.90;;;;;;5039138;28;19924;-76
2022/08/02 09:18:06;;;;;;;;;;;27.30;99.90;;;;;;5055286;28;20340;-76
2022/08/02 09:20:32;;;;;;;;;;;27.40;99.90;;;;;;5039819;28;19941;-75
2022/08/02 09:23:06;;;;;;;;;;;27.30;99.90;;;;;;5036083;28;20000;-75
2022/08/02 09:25:32;;;;;;;;;;;27.30;99.90;;;;;;5049428;28;19951;-76
2022/08/02 09:27:58;;;;;;;;;;;27.30;99.90;;;;;;5045584;28;19959;-75
2022/08/02 09:30:25;;;;;;;;;;;27.50;99.90;;;;;;5048837;28;19918;-75
2022/08/02 09:32:51;;;;;;;;;;;27.60;99.90;;;;;;5054339;28;19912;-75
2022/08/02 09:35:33;;;;;;;;;;;27.60;99.90;;;;;;5039963;28;19931;-78
2022/08/02 09:38:07;;;;;;;;;;;27.60;99.90;;;;;;5038579;28;19920;-76
2022/08/02 09:40:36;;;;;;;;;;;27.50;99.90;;;;;;5041101;28;19917;-74
2022/08/02 09:43:02;;;;;;;;;;;27.40;99.90;;;;;;5049300;28;19908;-75
2022/08/02 09:45:33;;;;;;;;;;;27.20;99.90;;;;;;5045977;28;19928;-75
2022/08/02 09:48:02;;;;;;;;;;;27.00;99.90;;;;;;5036898;28;20288;-75
2022/08/02 09:50:28;;;;;;;;;;;26.70;99.90;;;;;;5037210;28;19940;-75
2022/08/02 09:52:54;;;;;;;;;;;26.60;99.90;;;;;;5048243;28;20299;-74
2022/08/02 09:55:20;;;;;;;;;;;26.30;99.90;;;;;;5047115;28;20307;-76
2022/08/02 09:57:45;;;;;;;;;;;26.10;99.90;;;;;;5039027;28;19920;-75
2022/08/02 10:00:11;;;;;;;;;;;25.90;99.90;;;;;;5038275;28;19916;-75
2022/08/02 10:02:37;;;;;;;;;;;25.80;99.90;;;;;;5052665;28;19920;-76
2022/08/02 10:05:02;;;;;;;;;;;25.70;99.90;;;;;;5041512;28;20307;-75
2022/08/02 10:07:29;;;;;;;;;;;25.70;99.90;;;;;;5047240;28;20231;-74
2022/08/02 10:09:54;;;;;;;;;;;25.70;99.90;;;;;;5046790;28;19921;-75
2022/08/02 10:12:21;;;;;;;;;;;25.80;99.90;;;;;;5047762;28;20286;-75
2022/08/02 10:14:50;;;;;;;;;;;25.90;99.90;;;;;;5052751;28;19959;-75
2022/08/02 10:17:17;;;;;;;;;;;26.00;99.90;;;;;;5046602;28;20027;-74
2022/08/02 10:19:44;;;;;;;;;;;26.00;99.90;;;;;;5040838;28;19916;-74
2022/08/02 10:22:11;;;;;;;;;;;26.00;99.90;;;;;;5045149;28;19924;-77
2022/08/02 10:24:38;;;;;;;;;;;26.00;99.90;;;;;;5045024;28;19921;-74
2022/08/02 10:27:05;;;;;;;;;;;26.10;99.90;;;;;;5041363;28;19920;-74
2022/08/02 10:29:35;;;;;;;;;;;26.10;99.90;;;;;;5044700;28;19913;-75
2022/08/02 10:32:06;;;;;;;;;;;26.10;99.90;;;;;;5046828;28;19927;-77
2022/08/02 10:34:36;;;;;;;;;;;26.10;99.90;;;;;;5031968;28;20328;-74
2022/08/02 10:37:03;;;;;;;;;;;26.10;99.90;;;;;;5044505;28;19946;-74
2022/08/02 10:39:37;;;;;;;;;;;26.20;99.90;;;;;;5041354;28;20011;-75
2022/08/02 10:42:02;;;;;;;;;;;26.30;99.90;;;;;;5033832;28;19941;-75
2022/08/02 10:44:29;;;;;;;;;;;26.50;99.90;;;;;;5045432;28;19917;-77
2022/08/02 10:47:14;;;;;;;;;;;26.70;99.90;;;;;;5038141;28;19921;-75
2022/08/02 10:49:52;;;;;;;;;;;27.00;99.90;;;;;;5042770;28;19935;-75
2022/08/02 10:52:22;;;;;;;;;;;27.20;99.90;;;;;;5049477;28;19916;-76
2022/08/02 10:54:55;;;;;;;;;;;27.30;99.90;;;;;;5039287;28;19917;-75
2022/08/02 10:57:21;;;;;;;;;;;27.50;99.90;;;;;;5040384;28;20251;-75
2022/08/02 10:59:48;;;;;;;;;;;27.70;99.90;;;;;;5061372;28;19917;-76
2022/08/02 11:02:31;;;;;;;;;;;28.00;99.90;;;;;;5040113;28;19917;-76
2022/08/02 11:05:01;;;;;;;;;;;28.20;99.90;;;;;;5038765;28;20016;-75
2022/08/02 11:07:31;;;;;;;;;;;28.40;99.90;;;;;;5045724;28;19917;-76
2022/08/02 11:09:59;;;;;;;;;;;28.60;99.90;;;;;;5043549;28;19928;-75
2022/08/02 11:12:26;;;;;;;;;;;28.80;99.90;;;;;;5042311;28;19921;-75
2022/08/02 11:14:57;;;;;;;;;;;29.10;99.90;;;;;;5030852;28;19917;-75
2022/08/02 11:17:24;;;;;;;;;;;29.50;99.30;;;;;;5040061;28;19931;-78
2022/08/02 11:20:04;;;;;;;;;;;29.50;97.60;;;;;;5028721;28;19917;-74
2022/08/02 11:22:30;;;;;;;;;;;29.50;97.90;;;;;;5040615;28;19928;-75
2022/08/02 11:24:56;;;;;;;;;;;29.50;97.80;;;;;;5031800;28;19917;-75
2022/08/02 11:27:21;;;;;;;;;;;29.50;98.40;;;;;;5026579;28;20025;-75
2022/08/02 11:29:49;;;;;;;;;;;29.60;98.00;;;;;;5030165;28;19931;-75
2022/08/02 11:32:17;;;;;;;;;;;29.70;98.50;;;;;;5029016;28;19923;-75
2022/08/02 11:34:44;;;;;;;;;;;29.60;97.70;;;;;;5046047;28;19931;-75
2022/08/02 11:37:10;;;;;;;;;;;29.40;96.90;;;;;;5029715;28;19921;-75
2022/08/02 11:39:36;;;;;;;;;;;29.20;97.20;;;;;;5029390;28;19917;-75
2022/08/02 11:42:01;;;;;;;;;;;28.80;97.10;;;;;;5030763;28;20291;-75
2022/08/02 11:44:28;;;;;;;;;;;28.60;97.70;;;;;;5030191;28;19921;-75
2022/08/02 11:46:53;;;;;;;;;;;28.50;98.40;;;;;;5030965;28;19921;-76
2022/08/02 11:49:19;;;;;;;;;;;28.30;98.60;;;;;;5031482;28;20000;-76
2022/08/02 11:52:05;;;;;;;;;;;28.40;98.40;;;;;;5030276;28;19924;-74
2022/08/02 11:54:32;;;;;;;;;;;28.50;98.20;;;;;;5031187;28;20312;-76
2022/08/02 11:57:17;;;;;;;;;;;28.60;98.50;;;;;;5030697;28;19924;-77
2022/08/02 11:59:44;;;;;;;;;;;28.90;98.80;;;;;;5030040;28;19917;-75
2022/08/02 12:02:10;;;;;;;;;;;29.00;97.80;;;;;;5046642;28;20304;-75
2022/08/02 12:04:36;;;;;;;;;;;29.00;98.00;;;;;;5046633;28;19944;-77
2022/08/02 12:07:02;;;;;;;;;;;29.00;98.30;;;;;;5037666;28;20509;-75
2022/08/02 12:09:29;;;;;;;;;;;29.20;98.50;;;;;;5035190;28;19917;-74
2022/08/02 12:11:55;;;;;;;;;;;29.20;98.60;;;;;;5031112;28;19994;-75
2022/08/02 12:14:21;;;;;;;;;;;29.20;98.70;;;;;;5043803;28;19917;-75
2022/08/02 12:19:32;;;;;;;;;;;29.70;98.50;;;;;;5033013;28;20011;-75
2022/08/02 12:22:08;;;;;;;;;;;30.10;97.10;;;;;;5038314;28;19974;-76
2022/08/02 12:24:34;;;;;;;;;;;30.40;97.20;;;;;;5039062;28;19917;-76
2022/08/02 12:26:59;;;;;;;;;;;30.50;96.70;;;;;;5042421;28;19917;-76
2022/08/02 12:29:43;;;;;;;;;;;30.40;96.50;;;;;;5041417;28;19913;-76
2022/08/02 12:32:21;;;;;;;;;;;30.30;96.30;;;;;;5032073;28;20548;-75
2022/08/02 12:34:59;;;;;;;;;;;30.30;96.30;;;;;;5032525;28;20490;-75
2022/08/02 12:37:25;;;;;;;;;;;30.50;96.40;;;;;;5038663;28;20263;-76
2022/08/02 12:39:52;;;;;;;;;;;30.60;95.80;;;;;;5037639;28;19917;-76
2022/08/02 12:42:18;;;;;;;;;;;30.40;95.70;;;;;;5041983;28;20299;-76
2022/08/02 12:44:50;;;;;;;;;;;30.10;95.70;;;;;;5035168;28;19948;-77
2022/08/02 12:47:16;;;;;;;;;;;29.60;96.00;;;;;;5032422;28;19959;-74
2022/08/02 12:49:41;;;;;;;;;;;29.20;95.10;;;;;;5029934;28;19953;-76
2022/08/02 12:52:23;;;;;;;;;;;28.70;95.60;;;;;;5030666;28;19917;-78
2022/08/02 12:54:48;;;;;;;;;;;28.30;96.60;;;;;;5033430;28;19967;-76
2022/08/02 12:57:15;;;;;;;;;;;28.00;97.30;;;;;;5033898;28;20287;-77
2022/08/02 12:59:43;;;;;;;;;;;28.20;97.00;;;;;;5035688;28;19913;-76
2022/08/02 13:02:09;;;;;;;;;;;28.70;96.30;;;;;;5036779;28;20312;-75
2022/08/02 13:04:35;;;;;;;;;;;29.30;95.80;;;;;;5032674;28;19913;-75
2022/08/02 13:07:01;;;;;;;;;;;29.70;95.50;;;;;;5031488;28;19990;-75
2022/08/02 13:09:27;;;;;;;;;;;30.00;96.00;;;;;;5038800;28;20020;-76
2022/08/02 13:11:52;;;;;;;;;;;30.20;95.70;;;;;;5031323;28;20003;-75
2022/08/02 13:14:18;;;;;;;;;;;30.40;95.20;;;;;;5042463;28;20015;-75
2022/08/02 13:16:45;;;;;;;;;;;30.50;94.90;;;;;;5037379;28;20382;-77
2022/08/02 13:19:12;;;;;;;;;;;30.60;94.80;;;;;;5040418;28;19924;-77
2022/08/02 13:21:37;;;;;;;;;;;30.50;95.00;;;;;;5042779;28;20316;-76
2022/08/02 13:24:03;;;;;;;;;;;30.40;94.40;;;;;;5033333;28;19924;-76
2022/08/02 13:26:28;;;;;;;;;;;29.90;94.60;;;;;;5038440;28;19917;-75
2022/08/02 13:28:54;;;;;;;;;;;29.40;95.00;;;;;;5043694;28;19917;-75
2022/08/02 13:31:19;;;;;;;;;;;29.10;95.50;;;;;;5030862;28;19913;-77
2022/08/02 13:33:45;;;;;;;;;;;28.90;95.70;;;;;;5028991;28;20469;-77
2022/08/02 13:36:10;;;;;;;;;;;29.00;96.60;;;;;;5048100;28;20018;-75
2022/08/02 13:38:36;;;;;;;;;;;29.20;96.80;;;;;;5051496;28;19966;-75
2022/08/02 13:41:07;;;;;;;;;;;29.50;96.10;;;;;;5049662;28;19912;-75
2022/08/02 13:43:33;;;;;;;;;;;29.70;95.90;;;;;;5040405;28;20000;-76
2022/08/02 13:45:58;;;;;;;;;;;29.90;95.10;;;;;;5038008;28;20260;-76
2022/08/02 13:48:24;;;;;;;;;;;30.00;95.60;;;;;;5035656;28;19913;-75
2022/08/02 13:50:50;;;;;;;;;;;30.20;95.40;;;;;;5037466;28;20212;-78
2022/08/02 13:53:15;;;;;;;;;;;30.20;95.20;;;;;;5037648;28;19979;-75
2022/08/02 13:55:41;;;;;;;;;;;30.30;95.40;;;;;;5037815;28;19962;-74
2022/08/02 13:58:06;;;;;;;;;;;30.40;96.00;;;;;;5039283;28;19917;-75
2022/08/02 14:00:32;;;;;;;;;;;30.50;95.00;;;;;;5035651;28;19917;-78
2022/08/02 14:02:57;;;;;;;;;;;30.60;96.20;;;;;;5042110;28;19913;-74
2022/08/02 14:05:28;;;;;;;;;;;30.70;95.10;;;;;;5036457;28;19962;-75
2022/08/02 14:07:57;;;;;;;;;;;30.70;95.20;;;;;;5042820;28;19920;-76
2022/08/02 14:10:25;;;;;;;;;;;30.90;95.30;;;;;;5039744;28;19915;-76
2022/08/02 14:12:53;;;;;;;;;;;31.00;95.20;;;;;;5045604;28;19924;-75
2022/08/02 14:15:19;;;;;;;;;;;30.90;94.80;;;;;;5050750;28;19909;-78
2022/08/02 14:17:44;;;;;;;;;;;30.80;94.40;;;;;;5050963;28;20015;-77
2022/08/02 14:20:10;;;;;;;;;;;30.80;94.50;;;;;;5035429;28;20410;-75